sensor_id;sensor_type;location;lat;lon;timestamp;pressure;altitude;pressure_sealevel;temperature;humidity
62057;BME280;48016;50.284;18.860;2023-12-22T00:01:07;95184.39;;;4.43;83.38
62057;BME280;48016;50.284;18.860;2023-12-22T00:03:43;95183.39;;;4.43;83.54
62057;BME280;48016;50.284;18.860;2023-12-22T00:06:09;95188.09;;;4.43;83.62
62057;BME280;48016;50.284;18.860;2023-12-22T00:08:38;95179.62;;;4.44;83.67
62057;BME280;48016;50.284;18.860;2023-12-22T00:11:04;95181.80;;;4.46;83.79
62057;BME280;48016;50.284;18.860;2023-12-22T00:13:31;95187.12;;;4.47;83.82
62057;BME280;48016;50.284;18.860;2023-12-22T00:15:59;95195.53;;;4.47;83.90
62057;BME280;48016;50.284;18.860;2023-12-22T00:18:29;95197.83;;;4.43;83.90
62057;BME280;48016;50.284;18.860;2023-12-22T00:20:55;95203.99;;;4.39;83.71
62057;BME280;48016;50.284;18.860;2023-12-22T00:23:22;95208.88;;;4.39;83.82
62057;BME280;48016;50.284;18.860;2023-12-22T00:25:48;95209.82;;;4.37;83.79
62057;BME280;48016;50.284;18.860;2023-12-22T00:28:15;95215.17;;;4.35;83.73
62057;BME280;48016;50.284;18.860;2023-12-22T00:30:41;95230.91;;;4.31;83.59
62057;BME280;48016;50.284;18.860;2023-12-22T00:33:08;95232.41;;;4.30;83.56
62057;BME280;48016;50.284;18.860;2023-12-22T00:35:34;95237.33;;;4.31;83.55
62057;BME280;48016;50.284;18.860;2023-12-22T00:38:02;95229.26;;;4.31;83.31
62057;BME280;48016;50.284;18.860;2023-12-22T00:40:28;95221.30;;;4.30;82.65
62057;BME280;48016;50.284;18.860;2023-12-22T00:42:55;95223.62;;;4.28;82.29
62057;BME280;48016;50.284;18.860;2023-12-22T00:45:21;95229.30;;;4.27;81.59
62057;BME280;48016;50.284;18.860;2023-12-22T00:47:48;95230.90;;;4.28;81.76
62057;BME280;48016;50.284;18.860;2023-12-22T00:50:15;95230.58;;;4.27;81.98
62057;BME280;48016;50.284;18.860;2023-12-22T00:52:41;95235.19;;;4.26;81.83
62057;BME280;48016;50.284;18.860;2023-12-22T00:55:08;95244.75;;;4.24;81.65
62057;BME280;48016;50.284;18.860;2023-12-22T00:57:34;95249.22;;;4.22;81.82
62057;BME280;48016;50.284;18.860;2023-12-22T01:00:01;95251.31;;;4.21;81.80
62057;BME280;48016;50.284;18.860;2023-12-22T01:02:28;95254.36;;;4.21;81.73
62057;BME280;48016;50.284;18.860;2023-12-22T01:04:54;95256.18;;;4.21;81.80
62057;BME280;48016;50.284;18.860;2023-12-22T01:07:21;95257.86;;;4.20;81.84
62057;BME280;48016;50.284;18.860;2023-12-22T01:09:47;95256.32;;;4.19;81.86
62057;BME280;48016;50.284;18.860;2023-12-22T01:12:14;95255.61;;;4.17;81.79
62057;BME280;48016;50.284;18.860;2023-12-22T01:14:40;95260.40;;;4.14;81.75
62057;BME280;48016;50.284;18.860;2023-12-22T01:17:08;95266.02;;;4.10;81.72
62057;BME280;48016;50.284;18.860;2023-12-22T01:19:34;95263.98;;;4.06;81.82
62057;BME280;48016;50.284;18.860;2023-12-22T01:22:01;95272.57;;;4.03;81.78
62057;BME280;48016;50.284;18.860;2023-12-22T01:24:28;95279.18;;;4.00;81.79
62057;BME280;48016;50.284;18.860;2023-12-22T01:26:55;95284.70;;;3.99;81.61
62057;BME280;48016;50.284;18.860;2023-12-22T01:29:21;95287.30;;;3.97;81.82
62057;BME280;48016;50.284;18.860;2023-12-22T01:31:48;95279.58;;;3.94;81.74
62057;BME280;48016;50.284;18.860;2023-12-22T01:34:14;95282.76;;;3.92;81.69
62057;BME280;48016;50.284;18.860;2023-12-22T01:36:41;95288.91;;;3.87;81.67
62057;BME280;48016;50.284;18.860;2023-12-22T01:39:08;95286.75;;;3.84;81.66
62057;BME280;48016;50.284;18.860;2023-12-22T01:41:35;95287.08;;;3.80;81.56
62057;BME280;48016;50.284;18.860;2023-12-22T01:44:02;95283.89;;;3.78;81.72
62057;BME280;48016;50.284;18.860;2023-12-22T01:46:28;95278.30;;;3.76;81.65
62057;BME280;48016;50.284;18.860;2023-12-22T01:48:55;95270.45;;;3.75;81.77
62057;BME280;48016;50.284;18.860;2023-12-22T01:51:22;95263.64;;;3.73;81.66
62057;BME280;48016;50.284;18.860;2023-12-22T01:53:49;95267.55;;;3.68;81.56
62057;BME280;48016;50.284;18.860;2023-12-22T01:56:15;95271.33;;;3.65;81.59
62057;BME280;48016;50.284;18.860;2023-12-22T01:58:42;95263.57;;;3.60;81.36
62057;BME280;48016;50.284;18.860;2023-12-22T02:01:09;95255.59;;;3.58;81.54
62057;BME280;48016;50.284;18.860;2023-12-22T02:03:36;95247.59;;;3.52;81.43
62057;BME280;48016;50.284;18.860;2023-12-22T02:06:04;95245.14;;;3.45;81.49
62057;BME280;48016;50.284;18.860;2023-12-22T02:08:32;95250.08;;;3.38;81.26
62057;BME280;48016;50.284;18.860;2023-12-22T02:10:59;95250.45;;;3.33;81.17
62057;BME280;48016;50.284;18.860;2023-12-22T02:13:26;95250.78;;;3.32;81.36
62057;BME280;48016;50.284;18.860;2023-12-22T02:15:57;95254.60;;;3.30;81.27
62057;BME280;48016;50.284;18.860;2023-12-22T02:18:33;95254.45;;;3.24;81.24
62057;BME280;48016;50.284;18.860;2023-12-22T02:21:00;95254.74;;;3.21;81.29
62057;BME280;48016;50.284;18.860;2023-12-22T02:23:27;95253.27;;;3.19;81.26
62057;BME280;48016;50.284;18.860;2023-12-22T02:26:08;95249.87;;;3.17;81.16
62057;BME280;48016;50.284;18.860;2023-12-22T02:28:37;95250.05;;;3.14;80.88
62057;BME280;48016;50.284;18.860;2023-12-22T02:31:17;95257.10;;;3.14;80.97
62057;BME280;48016;50.284;18.860;2023-12-22T02:33:48;95249.73;;;3.15;80.77
62057;BME280;48016;50.284;18.860;2023-12-22T02:36:17;95243.33;;;3.15;80.67
62057;BME280;48016;50.284;18.860;2023-12-22T02:38:45;95246.80;;;3.15;80.43
62057;BME280;48016;50.284;18.860;2023-12-22T02:41:12;95255.09;;;3.15;79.94
62057;BME280;48016;50.284;18.860;2023-12-22T02:43:39;95258.20;;;3.11;79.30
62057;BME280;48016;50.284;18.860;2023-12-22T02:46:13;95262.91;;;3.10;79.34
62057;BME280;48016;50.284;18.860;2023-12-22T02:48:40;95270.02;;;3.10;79.25
62057;BME280;48016;50.284;18.860;2023-12-22T02:51:06;95270.59;;;3.11;79.24
62057;BME280;48016;50.284;18.860;2023-12-22T02:53:33;95283.04;;;3.10;78.82
62057;BME280;48016;50.284;18.860;2023-12-22T02:55:59;95278.09;;;3.08;78.49
62057;BME280;48016;50.284;18.860;2023-12-22T02:58:26;95278.14;;;3.08;78.22
62057;BME280;48016;50.284;18.860;2023-12-22T03:00:53;95278.52;;;3.07;78.12
62057;BME280;48016;50.284;18.860;2023-12-22T03:03:19;95283.23;;;3.06;77.54
62057;BME280;48016;50.284;18.860;2023-12-22T03:05:46;95276.46;;;3.05;77.47
62057;BME280;48016;50.284;18.860;2023-12-22T03:08:12;95282.87;;;3.04;77.40
62057;BME280;48016;50.284;18.860;2023-12-22T03:10:39;95281.02;;;3.04;77.32
62057;BME280;48016;50.284;18.860;2023-12-22T03:13:05;95284.33;;;3.04;76.62
62057;BME280;48016;50.284;18.860;2023-12-22T03:15:32;95282.45;;;3.04;76.94
62057;BME280;48016;50.284;18.860;2023-12-22T03:17:58;95283.58;;;3.04;76.66
62057;BME280;48016;50.284;18.860;2023-12-22T03:20:25;95280.64;;;3.04;76.50
62057;BME280;48016;50.284;18.860;2023-12-22T03:22:51;95281.60;;;3.03;76.10
62057;BME280;48016;50.284;18.860;2023-12-22T03:25:18;95288.83;;;3.02;75.45
62057;BME280;48016;50.284;18.860;2023-12-22T03:27:45;95291.65;;;3.02;75.65
62057;BME280;48016;50.284;18.860;2023-12-22T03:30:17;95288.52;;;3.02;75.47
62057;BME280;48016;50.284;18.860;2023-12-22T03:32:44;95280.01;;;3.02;75.44
62057;BME280;48016;50.284;18.860;2023-12-22T03:35:13;95281.45;;;3.02;75.23
62057;BME280;48016;50.284;18.860;2023-12-22T03:37:39;95277.87;;;3.02;75.48
62057;BME280;48016;50.284;18.860;2023-12-22T03:40:07;95278.79;;;3.02;75.54
62057;BME280;48016;50.284;18.860;2023-12-22T03:42:33;95285.50;;;3.02;75.13
62057;BME280;48016;50.284;18.860;2023-12-22T03:45:00;95286.20;;;3.03;75.21
62057;BME280;48016;50.284;18.860;2023-12-22T03:47:26;95280.94;;;3.06;75.22
62057;BME280;48016;50.284;18.860;2023-12-22T03:49:53;95279.27;;;3.07;75.24
62057;BME280;48016;50.284;18.860;2023-12-22T03:52:19;95283.46;;;3.08;75.29
62057;BME280;48016;50.284;18.860;2023-12-22T03:54:46;95282.29;;;3.10;75.16
62057;BME280;48016;50.284;18.860;2023-12-22T03:57:13;95277.06;;;3.08;74.72
62057;BME280;48016;50.284;18.860;2023-12-22T03:59:39;95274.42;;;3.08;74.88
62057;BME280;48016;50.284;18.860;2023-12-22T04:02:06;95271.06;;;3.05;74.98
62057;BME280;48016;50.284;18.860;2023-12-22T04:04:32;95264.31;;;3.03;74.83
62057;BME280;48016;50.284;18.860;2023-12-22T04:06:59;95257.27;;;3.02;74.89
62057;BME280;48016;50.284;18.860;2023-12-22T04:09:25;95251.42;;;3.00;74.90
62057;BME280;48016;50.284;18.860;2023-12-22T04:11:52;95250.85;;;2.98;74.64
62057;BME280;48016;50.284;18.860;2023-12-22T04:14:18;95253.52;;;2.98;74.78
62057;BME280;48016;50.284;18.860;2023-12-22T04:16:45;95273.20;;;3.00;74.80
62057;BME280;48016;50.284;18.860;2023-12-22T04:19:12;95285.15;;;3.01;74.75
62057;BME280;48016;50.284;18.860;2023-12-22T04:21:38;95297.81;;;2.99;74.94
62057;BME280;48016;50.284;18.860;2023-12-22T04:24:05;95314.55;;;2.95;75.01
62057;BME280;48016;50.284;18.860;2023-12-22T04:26:32;95345.10;;;2.85;75.56
62057;BME280;48016;50.284;18.860;2023-12-22T04:28:58;95356.51;;;2.62;76.45
62057;BME280;48016;50.284;18.860;2023-12-22T04:31:25;95350.58;;;2.34;76.73
62057;BME280;48016;50.284;18.860;2023-12-22T04:33:51;95348.09;;;2.11;77.34
62057;BME280;48016;50.284;18.860;2023-12-22T04:36:18;95348.99;;;1.93;77.80
62057;BME280;48016;50.284;18.860;2023-12-22T04:38:45;95343.84;;;1.75;78.41
62057;BME280;48016;50.284;18.860;2023-12-22T04:41:11;95343.72;;;1.58;79.07
62057;BME280;48016;50.284;18.860;2023-12-22T04:43:38;95344.49;;;1.46;79.09
62057;BME280;48016;50.284;18.860;2023-12-22T04:46:04;95349.35;;;1.36;79.28
62057;BME280;48016;50.284;18.860;2023-12-22T04:48:31;95357.51;;;1.27;79.53
62057;BME280;48016;50.284;18.860;2023-12-22T04:50:59;95362.98;;;1.18;80.13
62057;BME280;48016;50.284;18.860;2023-12-22T04:53:26;95361.35;;;1.11;80.20
62057;BME280;48016;50.284;18.860;2023-12-22T04:55:52;95360.33;;;1.05;80.59
62057;BME280;48016;50.284;18.860;2023-12-22T04:58:19;95357.77;;;1.02;80.77
62057;BME280;48016;50.284;18.860;2023-12-22T05:00:45;95354.32;;;0.99;80.76
62057;BME280;48016;50.284;18.860;2023-12-22T05:03:12;95366.13;;;0.97;81.16
62057;BME280;48016;50.284;18.860;2023-12-22T05:05:39;95379.48;;;0.96;81.20
62057;BME280;48016;50.284;18.860;2023-12-22T05:08:05;95372.71;;;0.88;81.86
62057;BME280;48016;50.284;18.860;2023-12-22T05:10:32;95348.52;;;0.80;82.71
62057;BME280;48016;50.284;18.860;2023-12-22T05:12:59;95352.86;;;0.73;82.33
62057;BME280;48016;50.284;18.860;2023-12-22T05:15:25;95358.66;;;0.67;82.28
62057;BME280;48016;50.284;18.860;2023-12-22T05:17:52;95355.19;;;0.61;82.50
62057;BME280;48016;50.284;18.860;2023-12-22T05:20:19;95349.38;;;0.55;82.19
62057;BME280;48016;50.284;18.860;2023-12-22T05:22:45;95352.83;;;0.51;82.58
62057;BME280;48016;50.284;18.860;2023-12-22T05:25:13;95351.34;;;0.47;82.66
62057;BME280;48016;50.284;18.860;2023-12-22T05:27:39;95354.10;;;0.43;82.72
62057;BME280;48016;50.284;18.860;2023-12-22T05:30:08;95340.73;;;0.39;82.85
62057;BME280;48016;50.284;18.860;2023-12-22T05:32:34;95331.70;;;0.39;83.09
62057;BME280;48016;50.284;18.860;2023-12-22T05:35:01;95333.94;;;0.39;83.69
62057;BME280;48016;50.284;18.860;2023-12-22T05:37:27;95340.52;;;0.40;83.42
62057;BME280;48016;50.284;18.860;2023-12-22T05:39:54;95346.81;;;0.42;83.27
62057;BME280;48016;50.284;18.860;2023-12-22T05:42:22;95344.41;;;0.43;83.29
62057;BME280;48016;50.284;18.860;2023-12-22T05:44:48;95336.07;;;0.41;83.33
62057;BME280;48016;50.284;18.860;2023-12-22T05:47:16;95327.30;;;0.41;83.34
62057;BME280;48016;50.284;18.860;2023-12-22T05:49:43;95331.92;;;0.41;83.13
62057;BME280;48016;50.284;18.860;2023-12-22T05:52:11;95328.89;;;0.40;83.08
62057;BME280;48016;50.284;18.860;2023-12-22T05:54:38;95325.22;;;0.40;82.74
62057;BME280;48016;50.284;18.860;2023-12-22T05:57:05;95331.05;;;0.39;82.73
62057;BME280;48016;50.284;18.860;2023-12-22T05:59:33;95322.72;;;0.39;82.62
62057;BME280;48016;50.284;18.860;2023-12-22T06:02:01;95327.73;;;0.39;82.60
62057;BME280;48016;50.284;18.860;2023-12-22T06:04:27;95328.29;;;0.36;82.51
62057;BME280;48016;50.284;18.860;2023-12-22T06:06:54;95337.60;;;0.36;82.35
62057;BME280;48016;50.284;18.860;2023-12-22T06:09:20;95341.31;;;0.36;81.99
62057;BME280;48016;50.284;18.860;2023-12-22T06:11:48;95347.16;;;0.37;81.90
62057;BME280;48016;50.284;18.860;2023-12-22T06:14:15;95350.52;;;0.38;81.86
62057;BME280;48016;50.284;18.860;2023-12-22T06:16:41;95354.34;;;0.39;81.80
62057;BME280;48016;50.284;18.860;2023-12-22T06:19:08;95362.05;;;0.41;81.82
62057;BME280;48016;50.284;18.860;2023-12-22T06:21:39;95371.96;;;0.43;81.70
62057;BME280;48016;50.284;18.860;2023-12-22T06:24:06;95375.90;;;0.45;81.83
62057;BME280;48016;50.284;18.860;2023-12-22T06:26:32;95378.39;;;0.48;81.86
62057;BME280;48016;50.284;18.860;2023-12-22T06:28:59;95374.79;;;0.50;81.82
62057;BME280;48016;50.284;18.860;2023-12-22T06:31:26;95372.84;;;0.51;81.94
62057;BME280;48016;50.284;18.860;2023-12-22T06:33:53;95375.48;;;0.52;81.98
62057;BME280;48016;50.284;18.860;2023-12-22T06:36:24;95379.27;;;0.53;82.00
62057;BME280;48016;50.284;18.860;2023-12-22T06:38:51;95385.80;;;0.54;82.10
62057;BME280;48016;50.284;18.860;2023-12-22T06:41:29;95385.85;;;0.55;82.05
62057;BME280;48016;50.284;18.860;2023-12-22T06:43:57;95385.60;;;0.56;82.02
62057;BME280;48016;50.284;18.860;2023-12-22T06:46:26;95388.77;;;0.55;81.92
62057;BME280;48016;50.284;18.860;2023-12-22T06:48:56;95391.44;;;0.54;82.05
62057;BME280;48016;50.284;18.860;2023-12-22T06:51:28;95399.99;;;0.54;82.06
62057;BME280;48016;50.284;18.860;2023-12-22T06:53:59;95401.55;;;0.58;82.24
62057;BME280;48016;50.284;18.860;2023-12-22T06:56:31;95391.89;;;0.64;82.18
62057;BME280;48016;50.284;18.860;2023-12-22T06:58:58;95388.76;;;0.65;82.08
62057;BME280;48016;50.284;18.860;2023-12-22T07:01:30;95391.45;;;0.66;82.20
62057;BME280;48016;50.284;18.860;2023-12-22T07:03:58;95394.44;;;0.65;82.13
62057;BME280;48016;50.284;18.860;2023-12-22T07:06:29;95393.42;;;0.65;81.95
62057;BME280;48016;50.284;18.860;2023-12-22T07:11:50;95384.98;;;0.61;82.20
62057;BME280;48016;50.284;18.860;2023-12-22T07:14:17;95384.13;;;0.61;82.11
62057;BME280;48016;50.284;18.860;2023-12-22T07:16:44;95392.73;;;0.63;82.26
62057;BME280;48016;50.284;18.860;2023-12-22T07:19:11;95392.95;;;0.65;82.13
62057;BME280;48016;50.284;18.860;2023-12-22T07:21:41;95390.89;;;0.69;82.14
62057;BME280;48016;50.284;18.860;2023-12-22T07:24:07;95398.65;;;0.74;82.05
62057;BME280;48016;50.284;18.860;2023-12-22T07:26:34;95405.52;;;0.77;82.20
62057;BME280;48016;50.284;18.860;2023-12-22T07:29:01;95410.04;;;0.78;82.02
62057;BME280;48016;50.284;18.860;2023-12-22T07:31:28;95413.23;;;0.77;82.15
62057;BME280;48016;50.284;18.860;2023-12-22T07:33:54;95409.04;;;0.79;82.22
62057;BME280;48016;50.284;18.860;2023-12-22T07:36:21;95407.97;;;0.78;82.04
62057;BME280;48016;50.284;18.860;2023-12-22T07:38:47;95409.63;;;0.77;81.98
62057;BME280;48016;50.284;18.860;2023-12-22T07:41:14;95416.01;;;0.78;81.84
62057;BME280;48016;50.284;18.860;2023-12-22T07:43:40;95411.86;;;0.80;82.05
62057;BME280;48016;50.284;18.860;2023-12-22T07:46:08;95425.17;;;0.87;82.02
62057;BME280;48016;50.284;18.860;2023-12-22T07:48:35;95436.78;;;0.96;82.04
62057;BME280;48016;50.284;18.860;2023-12-22T07:51:02;95435.20;;;1.06;82.16
62057;BME280;48016;50.284;18.860;2023-12-22T07:53:28;95439.37;;;1.17;81.97
62057;BME280;48016;50.284;18.860;2023-12-22T07:55:55;95438.04;;;1.25;82.06
62057;BME280;48016;50.284;18.860;2023-12-22T07:58:22;95438.73;;;1.29;81.96
62057;BME280;48016;50.284;18.860;2023-12-22T08:00:48;95443.20;;;1.30;81.94
62057;BME280;48016;50.284;18.860;2023-12-22T08:03:15;95438.79;;;1.30;81.94
62057;BME280;48016;50.284;18.860;2023-12-22T08:05:42;95432.35;;;1.30;82.05
62057;BME280;48016;50.284;18.860;2023-12-22T08:08:08;95426.98;;;1.30;81.98
62057;BME280;48016;50.284;18.860;2023-12-22T08:10:35;95421.38;;;1.32;82.08
62057;BME280;48016;50.284;18.860;2023-12-22T08:13:02;95434.16;;;1.33;81.98
62057;BME280;48016;50.284;18.860;2023-12-22T08:15:28;95439.37;;;1.35;81.83
62057;BME280;48016;50.284;18.860;2023-12-22T08:17:55;95438.15;;;1.36;81.76
62057;BME280;48016;50.284;18.860;2023-12-22T08:20:22;95440.22;;;1.38;81.98
62057;BME280;48016;50.284;18.860;2023-12-22T08:22:49;95448.32;;;1.42;81.89
62057;BME280;48016;50.284;18.860;2023-12-22T08:25:16;95458.11;;;1.44;82.02
62057;BME280;48016;50.284;18.860;2023-12-22T08:27:49;95474.15;;;1.44;82.09
62057;BME280;48016;50.284;18.860;2023-12-22T08:30:15;95482.77;;;1.45;81.86
62057;BME280;48016;50.284;18.860;2023-12-22T08:32:42;95478.55;;;1.44;81.89
62057;BME280;48016;50.284;18.860;2023-12-22T08:35:09;95474.36;;;1.45;81.91
62057;BME280;48016;50.284;18.860;2023-12-22T08:37:35;95470.89;;;1.48;81.93
62057;BME280;48016;50.284;18.860;2023-12-22T08:40:04;95470.48;;;1.50;82.00
62057;BME280;48016;50.284;18.860;2023-12-22T08:42:32;95462.91;;;1.59;81.99
62057;BME280;48016;50.284;18.860;2023-12-22T08:44:59;95459.92;;;1.66;81.97
62057;BME280;48016;50.284;18.860;2023-12-22T08:47:25;95453.27;;;1.70;81.85
62057;BME280;48016;50.284;18.860;2023-12-22T08:49:52;95449.84;;;1.77;81.76
62057;BME280;48016;50.284;18.860;2023-12-22T08:52:18;95453.45;;;1.86;81.79
62057;BME280;48016;50.284;18.860;2023-12-22T08:54:45;95458.45;;;1.96;81.88
62057;BME280;48016;50.284;18.860;2023-12-22T08:57:11;95458.15;;;2.07;81.55
62057;BME280;48016;50.284;18.860;2023-12-22T08:59:38;95452.07;;;2.11;81.20
62057;BME280;48016;50.284;18.860;2023-12-22T09:02:05;95448.90;;;2.15;81.25
62057;BME280;48016;50.284;18.860;2023-12-22T09:04:32;95447.10;;;2.15;80.76
62057;BME280;48016;50.284;18.860;2023-12-22T09:06:59;95426.25;;;2.16;80.78
62057;BME280;48016;50.284;18.860;2023-12-22T09:09:26;95426.60;;;2.19;80.63
62057;BME280;48016;50.284;18.860;2023-12-22T09:11:53;95428.26;;;2.22;80.35
62057;BME280;48016;50.284;18.860;2023-12-22T09:14:20;95429.55;;;2.18;80.18
62057;BME280;48016;50.284;18.860;2023-12-22T09:16:47;95425.58;;;2.13;80.19
62057;BME280;48016;50.284;18.860;2023-12-22T09:19:14;95437.58;;;2.09;80.15
62057;BME280;48016;50.284;18.860;2023-12-22T09:21:40;95435.65;;;2.08;80.14
62057;BME280;48016;50.284;18.860;2023-12-22T09:24:08;95442.15;;;2.08;79.92
62057;BME280;48016;50.284;18.860;2023-12-22T09:26:34;95438.33;;;2.07;79.81
62057;BME280;48016;50.284;18.860;2023-12-22T09:29:01;95431.77;;;2.09;79.60
62057;BME280;48016;50.284;18.860;2023-12-22T09:31:28;95435.87;;;2.12;79.69
62057;BME280;48016;50.284;18.860;2023-12-22T09:33:54;95438.15;;;2.13;79.61
62057;BME280;48016;50.284;18.860;2023-12-22T09:36:21;95437.40;;;2.15;79.74
62057;BME280;48016;50.284;18.860;2023-12-22T09:38:47;95442.81;;;2.19;80.17
62057;BME280;48016;50.284;18.860;2023-12-22T09:41:14;95447.38;;;2.26;79.79
62057;BME280;48016;50.284;18.860;2023-12-22T09:43:42;95450.40;;;2.33;80.00
62057;BME280;48016;50.284;18.860;2023-12-22T09:46:10;95453.31;;;2.44;79.85
62057;BME280;48016;50.284;18.860;2023-12-22T09:48:38;95448.30;;;2.52;78.93
62057;BME280;48016;50.284;18.860;2023-12-22T09:51:07;95452.23;;;2.58;79.06
62057;BME280;48016;50.284;18.860;2023-12-22T09:53:33;95445.05;;;2.63;78.67
62057;BME280;48016;50.284;18.860;2023-12-22T09:56:02;95445.41;;;2.69;78.42
62057;BME280;48016;50.284;18.860;2023-12-22T09:58:29;95453.98;;;2.80;78.34
62057;BME280;48016;50.284;18.860;2023-12-22T10:00:57;95446.79;;;2.88;77.78
62057;BME280;48016;50.284;18.860;2023-12-22T10:03:25;95440.77;;;2.96;77.71
62057;BME280;48016;50.284;18.860;2023-12-22T10:05:52;95433.79;;;3.04;77.33
62057;BME280;48016;50.284;18.860;2023-12-22T10:08:20;95417.20;;;3.08;76.90
62057;BME280;48016;50.284;18.860;2023-12-22T10:10:47;95413.22;;;3.13;76.76
62057;BME280;48016;50.284;18.860;2023-12-22T10:13:14;95417.25;;;3.19;76.53
62057;BME280;48016;50.284;18.860;2023-12-22T10:15:42;95404.41;;;3.21;75.90
62057;BME280;48016;50.284;18.860;2023-12-22T10:18:09;95392.29;;;3.21;75.90
62057;BME280;48016;50.284;18.860;2023-12-22T10:20:36;95395.91;;;3.23;75.72
62057;BME280;48016;50.284;18.860;2023-12-22T10:23:03;95398.24;;;3.24;75.51
62057;BME280;48016;50.284;18.860;2023-12-22T10:25:30;95404.09;;;3.21;75.53
62057;BME280;48016;50.284;18.860;2023-12-22T10:27:57;95403.84;;;3.11;75.06
62057;BME280;48016;50.284;18.860;2023-12-22T10:30:23;95410.77;;;3.03;75.28
62057;BME280;48016;50.284;18.860;2023-12-22T10:32:53;95426.52;;;2.96;75.25
62057;BME280;48016;50.284;18.860;2023-12-22T10:35:20;95432.58;;;2.82;75.43
62057;BME280;48016;50.284;18.860;2023-12-22T10:37:47;95446.85;;;2.69;76.29
62057;BME280;48016;50.284;18.860;2023-12-22T10:40:15;95459.23;;;2.58;76.44
62057;BME280;48016;50.284;18.860;2023-12-22T10:42:41;95459.92;;;2.42;76.90
62057;BME280;48016;50.284;18.860;2023-12-22T10:45:08;95462.86;;;2.24;77.24
62057;BME280;48016;50.284;18.860;2023-12-22T10:47:35;95446.48;;;2.11;77.85
62057;BME280;48016;50.284;18.860;2023-12-22T10:50:04;95438.00;;;2.04;78.90
62057;BME280;48016;50.284;18.860;2023-12-22T10:52:32;95441.52;;;2.10;78.65
62057;BME280;48016;50.284;18.860;2023-12-22T10:55:00;95434.27;;;2.09;78.53
62057;BME280;48016;50.284;18.860;2023-12-22T10:57:33;95436.27;;;2.01;78.65
62057;BME280;48016;50.284;18.860;2023-12-22T11:00:07;95424.19;;;1.92;78.97
62057;BME280;48016;50.284;18.860;2023-12-22T11:02:35;95423.13;;;1.88;78.96
62057;BME280;48016;50.284;18.860;2023-12-22T11:05:05;95428.77;;;1.89;79.34
62057;BME280;48016;50.284;18.860;2023-12-22T11:07:34;95420.45;;;1.95;79.44
62057;BME280;48016;50.284;18.860;2023-12-22T11:10:07;95416.11;;;2.04;79.51
62057;BME280;48016;50.284;18.860;2023-12-22T11:12:38;95415.62;;;2.10;79.71
62057;BME280;48016;50.284;18.860;2023-12-22T11:15:06;95415.02;;;2.08;79.78
62057;BME280;48016;50.284;18.860;2023-12-22T11:17:33;95408.02;;;2.01;79.91
62057;BME280;48016;50.284;18.860;2023-12-22T11:20:02;95410.52;;;1.98;80.02
62057;BME280;48016;50.284;18.860;2023-12-22T11:22:31;95405.09;;;1.99;80.09
62057;BME280;48016;50.284;18.860;2023-12-22T11:25:00;95405.50;;;2.03;80.14
62057;BME280;48016;50.284;18.860;2023-12-22T11:27:29;95417.80;;;2.09;80.19
62057;BME280;48016;50.284;18.860;2023-12-22T11:29:56;95413.84;;;2.28;80.26
62057;BME280;48016;50.284;18.860;2023-12-22T11:32:25;95412.10;;;2.50;80.58
62057;BME280;48016;50.284;18.860;2023-12-22T11:34:52;95419.55;;;2.73;80.54
62057;BME280;48016;50.284;18.860;2023-12-22T11:37:19;95418.61;;;2.89;80.48
62057;BME280;48016;50.284;18.860;2023-12-22T11:39:46;95417.85;;;3.01;80.49
62057;BME280;48016;50.284;18.860;2023-12-22T11:42:27;95414.30;;;3.04;80.57
62057;BME280;48016;50.284;18.860;2023-12-22T11:44:55;95409.61;;;3.03;80.50
62057;BME280;48016;50.284;18.860;2023-12-22T11:47:23;95404.33;;;3.03;80.57
62057;BME280;48016;50.284;18.860;2023-12-22T11:49:49;95399.95;;;3.03;80.39
62057;BME280;48016;50.284;18.860;2023-12-22T11:52:26;95397.33;;;3.03;80.21
62057;BME280;48016;50.284;18.860;2023-12-22T11:54:55;95394.90;;;3.02;80.16
62057;BME280;48016;50.284;18.860;2023-12-22T11:57:29;95398.98;;;3.04;80.21
62057;BME280;48016;50.284;18.860;2023-12-22T12:02:30;95390.70;;;3.05;80.28
62057;BME280;48016;50.284;18.860;2023-12-22T12:05:00;95394.08;;;3.02;80.27
62057;BME280;48016;50.284;18.860;2023-12-22T12:07:39;95387.15;;;3.01;80.15
62057;BME280;48016;50.284;18.860;2023-12-22T12:10:07;95393.77;;;3.02;79.91
62057;BME280;48016;50.284;18.860;2023-12-22T12:12:35;95393.13;;;3.08;79.72
62057;BME280;48016;50.284;18.860;2023-12-22T12:15:11;95391.02;;;3.12;79.67
62057;BME280;48016;50.284;18.860;2023-12-22T12:17:40;95378.90;;;3.11;79.32
62057;BME280;48016;50.284;18.860;2023-12-22T12:20:09;95370.56;;;3.14;79.25
62057;BME280;48016;50.284;18.860;2023-12-22T12:22:37;95360.44;;;3.11;78.85
62057;BME280;48016;50.284;18.860;2023-12-22T12:25:08;95364.48;;;3.06;78.47
62057;BME280;48016;50.284;18.860;2023-12-22T12:27:37;95369.61;;;2.98;77.95
62057;BME280;48016;50.284;18.860;2023-12-22T12:30:12;95367.13;;;2.88;77.40
62057;BME280;48016;50.284;18.860;2023-12-22T12:32:43;95370.10;;;2.80;77.37
62057;BME280;48016;50.284;18.860;2023-12-22T12:35:11;95361.88;;;2.73;77.19
62057;BME280;48016;50.284;18.860;2023-12-22T12:37:39;95367.91;;;2.66;76.89
62057;BME280;48016;50.284;18.860;2023-12-22T12:40:07;95368.09;;;2.63;76.59
62057;BME280;48016;50.284;18.860;2023-12-22T12:42:35;95373.75;;;2.60;75.97
62057;BME280;48016;50.284;18.860;2023-12-22T12:45:06;95381.24;;;2.55;75.37
62057;BME280;48016;50.284;18.860;2023-12-22T12:47:33;95377.10;;;2.52;75.25
62057;BME280;48016;50.284;18.860;2023-12-22T12:50:00;95386.17;;;2.52;74.57
62057;BME280;48016;50.284;18.860;2023-12-22T12:52:27;95384.21;;;2.58;74.76
62057;BME280;48016;50.284;18.860;2023-12-22T12:54:56;95395.70;;;2.65;75.12
62057;BME280;48016;50.284;18.860;2023-12-22T12:57:24;95396.89;;;2.72;75.20
62057;BME280;48016;50.284;18.860;2023-12-22T12:59:52;95396.27;;;2.79;75.29
62057;BME280;48016;50.284;18.860;2023-12-22T13:02:19;95402.55;;;2.88;75.39
62057;BME280;48016;50.284;18.860;2023-12-22T13:04:47;95408.73;;;2.90;75.11
62057;BME280;48016;50.284;18.860;2023-12-22T13:07:23;95415.09;;;2.88;74.58